sensor_id;sensor_type;location;lat;lon;timestamp;P1;durP1;ratioP1;P2;durP2;ratioP2
17636;SDS011;8937;51.236;6.794;2022-09-09T00:05:02;1.07;;;0.93;;
17636;SDS011;8937;51.236;6.794;2022-09-09T00:13:31;0.57;;;0.57;;
17636;SDS011;8937;51.236;6.794;2022-09-09T00:21:58;0.63;;;0.50;;
17636;SDS011;8937;51.236;6.794;2022-09-09T00:30:23;0.50;;;0.50;;
17636;SDS011;8937;51.236;6.794;2022-09-09T00:38:47;0.80;;;0.50;;
17636;SDS011;8937;51.236;6.794;2022-09-09T00:47:15;0.60;;;0.60;;
17636;SDS011;8937;51.236;6.794;2022-09-09T00:55:40;0.67;;;0.50;;
17636;SDS011;8937;51.236;6.794;2022-09-09T01:04:07;1.40;;;0.60;;
17636;SDS011;8937;51.236;6.794;2022-09-09T01:12:32;1.63;;;0.70;;
17636;SDS011;8937;51.236;6.794;2022-09-09T01:21:01;0.80;;;0.80;;
17636;SDS011;8937;51.236;6.794;2022-09-09T01:29:25;1.70;;;0.90;;
17636;SDS011;8937;51.236;6.794;2022-09-09T01:37:47;0.90;;;0.87;;
17636;SDS011;8937;51.236;6.794;2022-09-09T01:46:09;0.87;;;0.80;;
17636;SDS011;8937;51.236;6.794;2022-09-09T01:54:32;2.50;;;1.10;;
17636;SDS011;8937;51.236;6.794;2022-09-09T02:02:56;1.17;;;0.93;;
17636;SDS011;8937;51.236;6.794;2022-09-09T02:11:22;0.60;;;0.60;;
17636;SDS011;8937;51.236;6.794;2022-09-09T02:19:45;2.17;;;0.60;;
17636;SDS011;8937;51.236;6.794;2022-09-09T02:28:09;1.47;;;0.70;;
17636;SDS011;8937;51.236;6.794;2022-09-09T02:36:33;0.60;;;0.60;;
17636;SDS011;8937;51.236;6.794;2022-09-09T02:44:55;0.70;;;0.63;;
17636;SDS011;8937;51.236;6.794;2022-09-09T02:53:18;0.90;;;0.60;;
17636;SDS011;8937;51.236;6.794;2022-09-09T03:01:40;1.60;;;0.60;;
17636;SDS011;8937;51.236;6.794;2022-09-09T03:10:03;1.50;;;0.50;;
17636;SDS011;8937;51.236;6.794;2022-09-09T03:18:25;5.60;;;0.97;;
17636;SDS011;8937;51.236;6.794;2022-09-09T03:26:49;0.73;;;0.70;;
17636;SDS011;8937;51.236;6.794;2022-09-09T03:35:11;0.60;;;0.60;;
17636;SDS011;8937;51.236;6.794;2022-09-09T03:43:33;1.03;;;0.60;;
17636;SDS011;8937;51.236;6.794;2022-09-09T03:51:55;0.50;;;0.50;;
17636;SDS011;8937;51.236;6.794;2022-09-09T04:00:17;1.83;;;0.70;;
17636;SDS011;8937;51.236;6.794;2022-09-09T04:08:39;0.90;;;0.70;;
17636;SDS011;8937;51.236;6.794;2022-09-09T04:17:02;1.70;;;0.70;;
17636;SDS011;8937;51.236;6.794;2022-09-09T04:25:26;0.70;;;0.70;;
17636;SDS011;8937;51.236;6.794;2022-09-09T04:33:49;2.07;;;0.80;;
17636;SDS011;8937;51.236;6.794;2022-09-09T04:42:10;1.23;;;0.90;;
17636;SDS011;8937;51.236;6.794;2022-09-09T04:50:33;0.70;;;0.70;;
17636;SDS011;8937;51.236;6.794;2022-09-09T04:58:55;2.17;;;1.40;;
17636;SDS011;8937;51.236;6.794;2022-09-09T05:07:17;6.03;;;1.10;;
17636;SDS011;8937;51.236;6.794;2022-09-09T05:15:39;3.47;;;1.10;;
17636;SDS011;8937;51.236;6.794;2022-09-09T05:24:02;2.70;;;1.10;;
17636;SDS011;8937;51.236;6.794;2022-09-09T05:32:23;2.50;;;0.80;;
17636;SDS011;8937;51.236;6.794;2022-09-09T05:40:48;1.90;;;1.00;;
17636;SDS011;8937;51.236;6.794;2022-09-09T05:49:10;3.53;;;1.10;;
17636;SDS011;8937;51.236;6.794;2022-09-09T05:57:33;1.47;;;0.80;;
17636;SDS011;8937;51.236;6.794;2022-09-09T06:05:57;1.30;;;0.97;;
17636;SDS011;8937;51.236;6.794;2022-09-09T06:14:21;2.00;;;1.03;;
17636;SDS011;8937;51.236;6.794;2022-09-09T06:22:42;1.90;;;1.07;;
17636;SDS011;8937;51.236;6.794;2022-09-09T06:31:08;1.43;;;0.83;;
17636;SDS011;8937;51.236;6.794;2022-09-09T06:39:31;2.83;;;1.00;;
17636;SDS011;8937;51.236;6.794;2022-09-09T06:47:55;1.20;;;1.05;;
17636;SDS011;8937;51.236;6.794;2022-09-09T06:56:19;2.75;;;1.27;;
17636;SDS011;8937;51.236;6.794;2022-09-09T07:04:43;3.03;;;1.30;;
17636;SDS011;8937;51.236;6.794;2022-09-09T07:13:04;2.08;;;1.05;;
17636;SDS011;8937;51.236;6.794;2022-09-09T07:21:29;2.72;;;1.00;;
17636;SDS011;8937;51.236;6.794;2022-09-09T07:29:51;1.10;;;0.88;;
17636;SDS011;8937;51.236;6.794;2022-09-09T07:38:15;1.95;;;1.10;;
17636;SDS011;8937;51.236;6.794;2022-09-09T07:46:37;1.48;;;1.08;;
17636;SDS011;8937;51.236;6.794;2022-09-09T07:55:01;1.10;;;0.90;;
17636;SDS011;8937;51.236;6.794;2022-09-09T08:03:24;2.00;;;1.13;;
17636;SDS011;8937;51.236;6.794;2022-09-09T08:11:47;1.33;;;0.77;;
17636;SDS011;8937;51.236;6.794;2022-09-09T08:20:09;4.03;;;0.85;;
17636;SDS011;8937;51.236;6.794;2022-09-09T08:28:32;1.58;;;0.80;;
17636;SDS011;8937;51.236;6.794;2022-09-09T08:36:54;3.00;;;1.00;;
17636;SDS011;8937;51.236;6.794;2022-09-09T08:45:20;1.20;;;0.77;;
17636;SDS011;8937;51.236;6.794;2022-09-09T08:53:46;2.05;;;1.02;;
17636;SDS011;8937;51.236;6.794;2022-09-09T09:02:13;1.95;;;0.80;;
17636;SDS011;8937;51.236;6.794;2022-09-09T09:10:39;2.08;;;0.95;;
17636;SDS011;8937;51.236;6.794;2022-09-09T09:19:08;1.38;;;0.93;;
17636;SDS011;8937;51.236;6.794;2022-09-09T09:27:36;3.28;;;0.93;;
17636;SDS011;8937;51.236;6.794;2022-09-09T09:36:01;1.15;;;0.90;;
17636;SDS011;8937;51.236;6.794;2022-09-09T09:44:26;1.13;;;0.80;;
17636;SDS011;8937;51.236;6.794;2022-09-09T09:52:54;1.35;;;0.63;;
17636;SDS011;8937;51.236;6.794;2022-09-09T10:01:21;0.70;;;0.70;;
17636;SDS011;8937;51.236;6.794;2022-09-09T10:09:45;1.15;;;1.00;;
17636;SDS011;8937;51.236;6.794;2022-09-09T10:18:18;0.65;;;0.50;;
17636;SDS011;8937;51.236;6.794;2022-09-09T10:26:46;0.60;;;0.60;;
17636;SDS011;8937;51.236;6.794;2022-09-09T10:35:11;3.70;;;1.15;;
17636;SDS011;8937;51.236;6.794;2022-09-09T10:43:40;1.98;;;1.10;;
17636;SDS011;8937;51.236;6.794;2022-09-09T10:52:05;1.58;;;1.10;;
17636;SDS011;8937;51.236;6.794;2022-09-09T11:00:31;1.67;;;1.10;;
17636;SDS011;8937;51.236;6.794;2022-09-09T11:08:56;2.58;;;1.02;;
17636;SDS011;8937;51.236;6.794;2022-09-09T11:17:20;1.15;;;0.90;;
17636;SDS011;8937;51.236;6.794;2022-09-09T11:25:45;1.75;;;1.30;;
17636;SDS011;8937;51.236;6.794;2022-09-09T11:34:19;1.17;;;0.70;;
17636;SDS011;8937;51.236;6.794;2022-09-09T11:42:43;0.52;;;0.52;;
17636;SDS011;8937;51.236;6.794;2022-09-09T11:51:07;2.22;;;0.70;;
17636;SDS011;8937;51.236;6.794;2022-09-09T11:59:29;0.70;;;0.70;;
17636;SDS011;8937;51.236;6.794;2022-09-09T12:07:54;0.55;;;0.50;;
17636;SDS011;8937;51.236;6.794;2022-09-09T12:16:27;0.80;;;0.80;;
17636;SDS011;8937;51.236;6.794;2022-09-09T12:24:51;1.05;;;0.80;;
17636;SDS011;8937;51.236;6.794;2022-09-09T12:33:16;1.63;;;0.70;;
17636;SDS011;8937;51.236;6.794;2022-09-09T12:41:39;0.70;;;0.70;;
17636;SDS011;8937;51.236;6.794;2022-09-09T12:50:00;0.75;;;0.57;;
17636;SDS011;8937;51.236;6.794;2022-09-09T12:58:23;0.80;;;0.60;;
17636;SDS011;8937;51.236;6.794;2022-09-09T13:06:45;0.93;;;0.60;;
17636;SDS011;8937;51.236;6.794;2022-09-09T13:15:10;2.47;;;0.60;;
17636;SDS011;8937;51.236;6.794;2022-09-09T13:23:35;2.08;;;0.65;;
17636;SDS011;8937;51.236;6.794;2022-09-09T13:32:04;0.73;;;0.73;;
17636;SDS011;8937;51.236;6.794;2022-09-09T13:40:27;2.15;;;0.77;;
17636;SDS011;8937;51.236;6.794;2022-09-09T13:48:55;2.03;;;0.88;;
17636;SDS011;8937;51.236;6.794;2022-09-09T13:57:17;1.38;;;1.25;;
17636;SDS011;8937;51.236;6.794;2022-09-09T14:05:40;0.93;;;0.93;;
17636;SDS011;8937;51.236;6.794;2022-09-09T14:14:02;1.42;;;0.70;;
17636;SDS011;8937;51.236;6.794;2022-09-09T14:22:24;1.63;;;0.90;;
17636;SDS011;8937;51.236;6.794;2022-09-09T14:30:46;0.55;;;0.55;;
17636;SDS011;8937;51.236;6.794;2022-09-09T14:39:09;0.45;;;0.45;;
17636;SDS011;8937;51.236;6.794;2022-09-09T14:47:30;0.55;;;0.50;;
17636;SDS011;8937;51.236;6.794;2022-09-09T14:55:53;0.40;;;0.40;;
17636;SDS011;8937;51.236;6.794;2022-09-09T15:04:23;0.30;;;0.30;;
17636;SDS011;8937;51.236;6.794;2022-09-09T15:12:46;1.55;;;0.40;;
17636;SDS011;8937;51.236;6.794;2022-09-09T15:21:07;0.50;;;0.50;;
17636;SDS011;8937;51.236;6.794;2022-09-09T15:29:30;5.75;;;0.88;;
17636;SDS011;8937;51.236;6.794;2022-09-09T15:37:52;0.77;;;0.77;;
17636;SDS011;8937;51.236;6.794;2022-09-09T15:46:23;1.15;;;0.80;;
17636;SDS011;8937;51.236;6.794;2022-09-09T15:54:46;1.33;;;0.70;;
17636;SDS011;8937;51.236;6.794;2022-09-09T16:03:08;2.65;;;1.27;;
17636;SDS011;8937;51.236;6.794;2022-09-09T16:11:33;1.35;;;1.20;;
17636;SDS011;8937;51.236;6.794;2022-09-09T16:19:56;2.35;;;1.40;;
17636;SDS011;8937;51.236;6.794;2022-09-09T16:28:17;1.27;;;1.10;;
17636;SDS011;8937;51.236;6.794;2022-09-09T16:36:41;1.40;;;0.95;;
17636;SDS011;8937;51.236;6.794;2022-09-09T16:45:02;2.15;;;1.58;;
17636;SDS011;8937;51.236;6.794;2022-09-09T16:53:25;2.60;;;1.08;;
17636;SDS011;8937;51.236;6.794;2022-09-09T17:01:48;1.73;;;1.10;;
17636;SDS011;8937;51.236;6.794;2022-09-09T17:10:11;1.73;;;1.00;;
17636;SDS011;8937;51.236;6.794;2022-09-09T17:18:33;1.30;;;1.20;;
17636;SDS011;8937;51.236;6.794;2022-09-09T17:26:56;1.97;;;1.33;;
17636;SDS011;8937;51.236;6.794;2022-09-09T17:35:18;1.05;;;1.00;;
17636;SDS011;8937;51.236;6.794;2022-09-09T17:43:41;1.63;;;1.10;;
17636;SDS011;8937;51.236;6.794;2022-09-09T17:52:02;1.20;;;1.20;;
17636;SDS011;8937;51.236;6.794;2022-09-09T18:00:25;2.20;;;1.40;;
17636;SDS011;8937;51.236;6.794;2022-09-09T18:08:51;1.53;;;1.43;;
17636;SDS011;8937;51.236;6.794;2022-09-09T18:17:13;2.00;;;1.80;;
17636;SDS011;8937;51.236;6.794;2022-09-09T18:25:36;2.03;;;1.70;;
17636;SDS011;8937;51.236;6.794;2022-09-09T18:33:59;2.60;;;2.40;;
17636;SDS011;8937;51.236;6.794;2022-09-09T18:42:21;2.58;;;1.80;;
17636;SDS011;8937;51.236;6.794;2022-09-09T18:50:44;2.07;;;1.67;;
17636;SDS011;8937;51.236;6.794;2022-09-09T18:59:06;1.80;;;1.70;;
17636;SDS011;8937;51.236;6.794;2022-09-09T19:07:30;2.90;;;1.37;;
17636;SDS011;8937;51.236;6.794;2022-09-09T19:15:52;1.50;;;1.33;;
17636;SDS011;8937;51.236;6.794;2022-09-09T19:24:16;2.27;;;1.43;;
17636;SDS011;8937;51.236;6.794;2022-09-09T19:32:38;2.07;;;1.33;;
17636;SDS011;8937;51.236;6.794;2022-09-09T19:41:02;1.20;;;1.17;;
17636;SDS011;8937;51.236;6.794;2022-09-09T19:49:24;1.20;;;1.10;;
17636;SDS011;8937;51.236;6.794;2022-09-09T19:57:47;1.43;;;1.33;;
17636;SDS011;8937;51.236;6.794;2022-09-09T20:06:09;2.73;;;1.40;;
17636;SDS011;8937;51.236;6.794;2022-09-09T20:14:32;1.80;;;1.33;;
17636;SDS011;8937;51.236;6.794;2022-09-09T20:22:54;2.17;;;1.17;;
17636;SDS011;8937;51.236;6.794;2022-09-09T20:31:18;1.30;;;1.20;;
17636;SDS011;8937;51.236;6.794;2022-09-09T20:39:39;1.40;;;1.00;;
17636;SDS011;8937;51.236;6.794;2022-09-09T20:48:02;2.47;;;2.10;;
17636;SDS011;8937;51.236;6.794;2022-09-09T20:56:24;1.60;;;1.40;;
17636;SDS011;8937;51.236;6.794;2022-09-09T21:04:47;1.30;;;1.20;;
17636;SDS011;8937;51.236;6.794;2022-09-09T21:13:08;1.07;;;1.03;;
17636;SDS011;8937;51.236;6.794;2022-09-09T21:21:31;1.37;;;0.90;;
17636;SDS011;8937;51.236;6.794;2022-09-09T21:29:52;2.93;;;1.00;;
17636;SDS011;8937;51.236;6.794;2022-09-09T21:38:15;1.53;;;1.10;;
17636;SDS011;8937;51.236;6.794;2022-09-09T21:46:37;0.87;;;0.87;;
17636;SDS011;8937;51.236;6.794;2022-09-09T21:55:00;1.70;;;1.30;;
17636;SDS011;8937;51.236;6.794;2022-09-09T22:03:21;1.57;;;1.00;;
17636;SDS011;8937;51.236;6.794;2022-09-09T22:11:45;1.20;;;1.10;;
17636;SDS011;8937;51.236;6.794;2022-09-09T22:20:07;4.30;;;1.33;;
17636;SDS011;8937;51.236;6.794;2022-09-09T22:28:31;3.00;;;1.10;;
17636;SDS011;8937;51.236;6.794;2022-09-09T22:36:52;1.33;;;1.00;;
17636;SDS011;8937;51.236;6.794;2022-09-09T22:45:15;1.90;;;1.20;;
17636;SDS011;8937;51.236;6.794;2022-09-09T22:53:37;1.53;;;0.83;;
17636;SDS011;8937;51.236;6.794;2022-09-09T23:02:01;1.10;;;1.00;;
17636;SDS011;8937;51.236;6.794;2022-09-09T23:10:22;1.43;;;0.93;;
17636;SDS011;8937;51.236;6.794;2022-09-09T23:18:45;1.60;;;0.93;;
17636;SDS011;8937;51.236;6.794;2022-09-09T23:27:07;0.83;;;0.83;;
17636;SDS011;8937;51.236;6.794;2022-09-09T23:35:29;1.07;;;0.97;;
17636;SDS011;8937;51.236;6.794;2022-09-09T23:43:52;0.50;;;0.50;;
17636;SDS011;8937;51.236;6.794;2022-09-09T23:52:15;3.03;;;1.30;;
